sensor_id;sensor_type;location;lat;lon;timestamp;pressure;altitude;pressure_sealevel;temperature
15845;BMP180;50807;52.436;13.346;2022-10-13T00:00:09;101745.00;;;14.00
15845;BMP180;50807;52.436;13.346;2022-10-13T00:00:45;101755.00;;;14.00
15845;BMP180;50807;52.436;13.346;2022-10-13T00:01:19;101745.00;;;14.00
15845;BMP180;50807;52.436;13.346;2022-10-13T00:01:50;101746.00;;;14.00
15845;BMP180;50807;52.436;13.346;2022-10-13T00:02:22;101746.00;;;14.00
15845;BMP180;50807;52.436;13.346;2022-10-13T00:02:53;101757.00;;;14.00
15845;BMP180;50807;52.436;13.346;2022-10-13T00:03:24;101746.00;;;14.00
15845;BMP180;50807;52.436;13.346;2022-10-13T00:03:55;101746.00;;;14.00
15845;BMP180;50807;52.436;13.346;2022-10-13T00:04:27;101738.00;;;14.00
15845;BMP180;50807;52.436;13.346;2022-10-13T00:04:58;101738.00;;;14.00
15845;BMP180;50807;52.436;13.346;2022-10-13T00:05:30;101742.00;;;14.00
15845;BMP180;50807;52.436;13.346;2022-10-13T00:06:05;101744.00;;;13.90
15845;BMP180;50807;52.436;13.346;2022-10-13T00:06:38;101740.00;;;13.90
15845;BMP180;50807;52.436;13.346;2022-10-13T00:07:09;101746.00;;;14.00
15845;BMP180;50807;52.436;13.346;2022-10-13T00:07:40;101744.00;;;14.00
15845;BMP180;50807;52.436;13.346;2022-10-13T00:08:15;101736.00;;;13.90
15845;BMP180;50807;52.436;13.346;2022-10-13T00:08:48;101749.00;;;13.90
15845;BMP180;50807;52.436;13.346;2022-10-13T00:09:20;101740.00;;;13.90
15845;BMP180;50807;52.436;13.346;2022-10-13T00:09:52;101736.00;;;13.90
15845;BMP180;50807;52.436;13.346;2022-10-13T00:10:24;101743.00;;;13.90
15845;BMP180;50807;52.436;13.346;2022-10-13T00:10:56;101740.00;;;13.90
15845;BMP180;50807;52.436;13.346;2022-10-13T00:11:30;101737.00;;;13.90
15845;BMP180;50807;52.436;13.346;2022-10-13T00:12:01;101736.00;;;13.90
15845;BMP180;50807;52.436;13.346;2022-10-13T00:12:34;101744.00;;;13.90
15845;BMP180;50807;52.436;13.346;2022-10-13T00:13:07;101739.00;;;13.90
15845;BMP180;50807;52.436;13.346;2022-10-13T00:13:39;101738.00;;;13.90
15845;BMP180;50807;52.436;13.346;2022-10-13T00:14:10;101740.00;;;13.90
15845;BMP180;50807;52.436;13.346;2022-10-13T00:14:42;101750.00;;;13.90
15845;BMP180;50807;52.436;13.346;2022-10-13T00:15:14;101743.00;;;13.80
15845;BMP180;50807;52.436;13.346;2022-10-13T00:15:47;101739.00;;;13.80
15845;BMP180;50807;52.436;13.346;2022-10-13T00:16:21;101741.00;;;13.80
15845;BMP180;50807;52.436;13.346;2022-10-13T00:16:52;101741.00;;;13.80
15845;BMP180;50807;52.436;13.346;2022-10-13T00:17:23;101745.00;;;13.90
15845;BMP180;50807;52.436;13.346;2022-10-13T00:17:55;101742.00;;;13.90
15845;BMP180;50807;52.436;13.346;2022-10-13T00:18:26;101742.00;;;13.80
15845;BMP180;50807;52.436;13.346;2022-10-13T00:18:57;101728.00;;;13.80
15845;BMP180;50807;52.436;13.346;2022-10-13T00:19:29;101744.00;;;13.90
15845;BMP180;50807;52.436;13.346;2022-10-13T00:20:01;101741.00;;;13.80
15845;BMP180;50807;52.436;13.346;2022-10-13T00:20:32;101735.00;;;13.80
15845;BMP180;50807;52.436;13.346;2022-10-13T00:21:07;101733.00;;;13.80
15845;BMP180;50807;52.436;13.346;2022-10-13T00:21:39;101738.00;;;13.80
15845;BMP180;50807;52.436;13.346;2022-10-13T00:22:10;101735.00;;;13.80
15845;BMP180;50807;52.436;13.346;2022-10-13T00:22:42;101729.00;;;13.80
15845;BMP180;50807;52.436;13.346;2022-10-13T00:23:14;101737.00;;;13.80
15845;BMP180;50807;52.436;13.346;2022-10-13T00:23:47;101731.00;;;13.80
15845;BMP180;50807;52.436;13.346;2022-10-13T00:24:19;101730.00;;;13.80
15845;BMP180;50807;52.436;13.346;2022-10-13T00:24:52;101730.00;;;13.80
15845;BMP180;50807;52.436;13.346;2022-10-13T00:25:23;101731.00;;;13.80
15845;BMP180;50807;52.436;13.346;2022-10-13T00:25:55;101728.00;;;13.80
15845;BMP180;50807;52.436;13.346;2022-10-13T00:26:26;101731.00;;;13.90
15845;BMP180;50807;52.436;13.346;2022-10-13T00:26:57;101721.00;;;13.80
15845;BMP180;50807;52.436;13.346;2022-10-13T00:27:29;101728.00;;;13.80
15845;BMP180;50807;52.436;13.346;2022-10-13T00:28:00;101726.00;;;13.80
15845;BMP180;50807;52.436;13.346;2022-10-13T00:28:32;101732.00;;;13.80
15845;BMP180;50807;52.436;13.346;2022-10-13T00:29:03;101724.00;;;13.80
15845;BMP180;50807;52.436;13.346;2022-10-13T00:29:35;101728.00;;;13.80
15845;BMP180;50807;52.436;13.346;2022-10-13T00:30:07;101715.00;;;13.80
15845;BMP180;50807;52.436;13.346;2022-10-13T00:30:38;101728.00;;;13.80
15845;BMP180;50807;52.436;13.346;2022-10-13T00:31:16;101728.00;;;13.70
15845;BMP180;50807;52.436;13.346;2022-10-13T00:31:47;101722.00;;;13.70
15845;BMP180;50807;52.436;13.346;2022-10-13T00:32:18;101725.00;;;13.70
15845;BMP180;50807;52.436;13.346;2022-10-13T00:32:50;101718.00;;;13.70
15845;BMP180;50807;52.436;13.346;2022-10-13T00:33:21;101719.00;;;13.70
15845;BMP180;50807;52.436;13.346;2022-10-13T00:33:52;101730.00;;;13.70
15845;BMP180;50807;52.436;13.346;2022-10-13T00:34:24;101721.00;;;13.70
15845;BMP180;50807;52.436;13.346;2022-10-13T00:34:54;101726.00;;;13.70
15845;BMP180;50807;52.436;13.346;2022-10-13T00:35:27;101723.00;;;13.70
15845;BMP180;50807;52.436;13.346;2022-10-13T00:35:58;101718.00;;;13.70
15845;BMP180;50807;52.436;13.346;2022-10-13T00:36:29;101723.00;;;13.70
15845;BMP180;50807;52.436;13.346;2022-10-13T00:37:03;101725.00;;;13.70
15845;BMP180;50807;52.436;13.346;2022-10-13T00:37:34;101720.00;;;13.70
15845;BMP180;50807;52.436;13.346;2022-10-13T00:38:05;101727.00;;;13.60
15845;BMP180;50807;52.436;13.346;2022-10-13T00:38:37;101722.00;;;13.60
15845;BMP180;50807;52.436;13.346;2022-10-13T00:39:07;101725.00;;;13.60
15845;BMP180;50807;52.436;13.346;2022-10-13T00:39:38;101724.00;;;13.60
15845;BMP180;50807;52.436;13.346;2022-10-13T00:40:11;101732.00;;;13.60
15845;BMP180;50807;52.436;13.346;2022-10-13T00:40:44;101735.00;;;13.60
15845;BMP180;50807;52.436;13.346;2022-10-13T00:41:16;101727.00;;;13.60
15845;BMP180;50807;52.436;13.346;2022-10-13T00:41:48;101730.00;;;13.60
15845;BMP180;50807;52.436;13.346;2022-10-13T00:42:18;101725.00;;;13.60
15845;BMP180;50807;52.436;13.346;2022-10-13T00:42:49;101728.00;;;13.60
15845;BMP180;50807;52.436;13.346;2022-10-13T00:43:23;101722.00;;;13.60
15845;BMP180;50807;52.436;13.346;2022-10-13T00:43:59;101726.00;;;13.50
15845;BMP180;50807;52.436;13.346;2022-10-13T00:45:01;101722.00;;;13.30
15845;BMP180;50807;52.436;13.346;2022-10-13T00:45:33;101722.00;;;13.40
15845;BMP180;50807;52.436;13.346;2022-10-13T00:46:04;101719.00;;;13.50
15845;BMP180;50807;52.436;13.346;2022-10-13T00:46:36;101724.00;;;13.50
15845;BMP180;50807;52.436;13.346;2022-10-13T00:47:08;101722.00;;;13.50
15845;BMP180;50807;52.436;13.346;2022-10-13T00:47:43;101723.00;;;13.50
15845;BMP180;50807;52.436;13.346;2022-10-13T00:48:17;101722.00;;;13.50
15845;BMP180;50807;52.436;13.346;2022-10-13T00:48:50;101723.00;;;13.50
15845;BMP180;50807;52.436;13.346;2022-10-13T00:49:22;101727.00;;;13.50
15845;BMP180;50807;52.436;13.346;2022-10-13T00:49:54;101723.00;;;13.50
15845;BMP180;50807;52.436;13.346;2022-10-13T00:50:34;101724.00;;;13.40
15845;BMP180;50807;52.436;13.346;2022-10-13T00:51:05;101721.00;;;13.40
15845;BMP180;50807;52.436;13.346;2022-10-13T00:51:42;101720.00;;;13.40
15845;BMP180;50807;52.436;13.346;2022-10-13T00:52:16;101721.00;;;13.40
15845;BMP180;50807;52.436;13.346;2022-10-13T00:52:50;101712.00;;;13.40
15845;BMP180;50807;52.436;13.346;2022-10-13T00:53:30;101725.00;;;13.30
15845;BMP180;50807;52.436;13.346;2022-10-13T00:54:06;101722.00;;;13.30
15845;BMP180;50807;52.436;13.346;2022-10-13T00:54:40;101716.00;;;13.40
15845;BMP180;50807;52.436;13.346;2022-10-13T00:55:16;101720.00;;;13.30
15845;BMP180;50807;52.436;13.346;2022-10-13T00:55:50;101719.00;;;13.40
15845;BMP180;50807;52.436;13.346;2022-10-13T00:56:24;101723.00;;;13.40
15845;BMP180;50807;52.436;13.346;2022-10-13T00:56:56;101719.00;;;13.40
15845;BMP180;50807;52.436;13.346;2022-10-13T00:57:27;101716.00;;;13.40
15845;BMP180;50807;52.436;13.346;2022-10-13T00:58:01;101716.00;;;13.40
15845;BMP180;50807;52.436;13.346;2022-10-13T00:58:35;101721.00;;;13.40
15845;BMP180;50807;52.436;13.346;2022-10-13T00:59:13;101719.00;;;13.30
15845;BMP180;50807;52.436;13.346;2022-10-13T00:59:48;101715.00;;;13.30
15845;BMP180;50807;52.436;13.346;2022-10-13T01:00:20;101717.00;;;13.30
15845;BMP180;50807;52.436;13.346;2022-10-13T01:00:52;101723.00;;;13.40
15845;BMP180;50807;52.436;13.346;2022-10-13T01:01:24;101709.00;;;13.40
15845;BMP180;50807;52.436;13.346;2022-10-13T01:01:58;101714.00;;;13.40
15845;BMP180;50807;52.436;13.346;2022-10-13T01:02:34;101718.00;;;13.30
15845;BMP180;50807;52.436;13.346;2022-10-13T01:03:06;101718.00;;;13.40
15845;BMP180;50807;52.436;13.346;2022-10-13T01:03:37;101715.00;;;13.40
15845;BMP180;50807;52.436;13.346;2022-10-13T01:04:08;101712.00;;;13.40
15845;BMP180;50807;52.436;13.346;2022-10-13T01:04:44;101718.00;;;13.30
15845;BMP180;50807;52.436;13.346;2022-10-13T01:05:18;101718.00;;;13.40
15845;BMP180;50807;52.436;13.346;2022-10-13T01:05:57;101722.00;;;13.30
15845;BMP180;50807;52.436;13.346;2022-10-13T01:06:30;101717.00;;;13.30
15845;BMP180;50807;52.436;13.346;2022-10-13T01:07:02;101719.00;;;13.30
15845;BMP180;50807;52.436;13.346;2022-10-13T01:07:34;101728.00;;;13.30
15845;BMP180;50807;52.436;13.346;2022-10-13T01:08:05;101713.00;;;13.30
15845;BMP180;50807;52.436;13.346;2022-10-13T01:08:38;101722.00;;;13.30
15845;BMP180;50807;52.436;13.346;2022-10-13T01:09:08;101719.00;;;13.30
15845;BMP180;50807;52.436;13.346;2022-10-13T01:09:39;101724.00;;;13.30
15845;BMP180;50807;52.436;13.346;2022-10-13T01:10:11;101722.00;;;13.30
15845;BMP180;50807;52.436;13.346;2022-10-13T01:10:55;101728.00;;;13.20
15845;BMP180;50807;52.436;13.346;2022-10-13T01:11:48;101716.00;;;13.10
15845;BMP180;50807;52.436;13.346;2022-10-13T01:12:41;101716.00;;;13.00
15845;BMP180;50807;52.436;13.346;2022-10-13T01:13:22;101719.00;;;13.10
15845;BMP180;50807;52.436;13.346;2022-10-13T01:14:05;101714.00;;;13.10
15845;BMP180;50807;52.436;13.346;2022-10-13T01:14:46;101718.00;;;13.00
15845;BMP180;50807;52.436;13.346;2022-10-13T01:15:27;101714.00;;;13.00
15845;BMP180;50807;52.436;13.346;2022-10-13T01:16:08;101709.00;;;13.10
15845;BMP180;50807;52.436;13.346;2022-10-13T01:16:54;101716.00;;;13.00
15845;BMP180;50807;52.436;13.346;2022-10-13T01:17:36;101710.00;;;13.00
15845;BMP180;50807;52.436;13.346;2022-10-13T01:18:20;101720.00;;;13.00
15845;BMP180;50807;52.436;13.346;2022-10-13T01:19:00;101715.00;;;13.00
15845;BMP180;50807;52.436;13.346;2022-10-13T01:20:07;101721.00;;;12.90
15845;BMP180;50807;52.436;13.346;2022-10-13T01:21:04;101722.00;;;12.80
15845;BMP180;50807;52.436;13.346;2022-10-13T01:21:44;101714.00;;;12.80
15845;BMP180;50807;52.436;13.346;2022-10-13T01:22:41;101711.00;;;12.80
15845;BMP180;50807;52.436;13.346;2022-10-13T01:24:50;101707.00;;;12.60
15845;BMP180;50807;52.436;13.346;2022-10-13T01:25:47;101710.00;;;12.60
15845;BMP180;50807;52.436;13.346;2022-10-13T01:26:55;101702.00;;;12.60
15845;BMP180;50807;52.436;13.346;2022-10-13T01:27:41;101710.00;;;12.60
15845;BMP180;50807;52.436;13.346;2022-10-13T01:28:38;101713.00;;;12.50
15845;BMP180;50807;52.436;13.346;2022-10-13T01:29:42;101709.00;;;12.50
15845;BMP180;50807;52.436;13.346;2022-10-13T01:30:16;101708.00;;;12.60
15845;BMP180;50807;52.436;13.346;2022-10-13T01:30:56;101707.00;;;12.60
15845;BMP180;50807;52.436;13.346;2022-10-13T01:31:36;101715.00;;;12.60
15845;BMP180;50807;52.436;13.346;2022-10-13T01:32:19;101709.00;;;12.60
15845;BMP180;50807;52.436;13.346;2022-10-13T01:33:06;101705.00;;;12.60
15845;BMP180;50807;52.436;13.346;2022-10-13T01:33:49;101705.00;;;12.70
15845;BMP180;50807;52.436;13.346;2022-10-13T01:34:31;101701.00;;;12.70
15845;BMP180;50807;52.436;13.346;2022-10-13T01:35:08;101707.00;;;12.70
15845;BMP180;50807;52.436;13.346;2022-10-13T01:35:54;101700.00;;;12.60
15845;BMP180;50807;52.436;13.346;2022-10-13T01:36:34;101696.00;;;12.70
15845;BMP180;50807;52.436;13.346;2022-10-13T01:37:17;101703.00;;;12.70
15845;BMP180;50807;52.436;13.346;2022-10-13T01:37:59;101699.00;;;12.70
15845;BMP180;50807;52.436;13.346;2022-10-13T01:38:39;101695.00;;;12.70
15845;BMP180;50807;52.436;13.346;2022-10-13T01:39:22;101700.00;;;12.70
15845;BMP180;50807;52.436;13.346;2022-10-13T01:40:01;101700.00;;;12.70
15845;BMP180;50807;52.436;13.346;2022-10-13T01:40:42;101703.00;;;12.70
15845;BMP180;50807;52.436;13.346;2022-10-13T01:41:24;101702.00;;;12.70
15845;BMP180;50807;52.436;13.346;2022-10-13T01:42:07;101690.00;;;12.70
15845;BMP180;50807;52.436;13.346;2022-10-13T01:42:50;101703.00;;;12.70
15845;BMP180;50807;52.436;13.346;2022-10-13T01:43:29;101695.00;;;12.70
15845;BMP180;50807;52.436;13.346;2022-10-13T01:44:11;101697.00;;;12.70
15845;BMP180;50807;52.436;13.346;2022-10-13T01:44:51;101692.00;;;12.70
15845;BMP180;50807;52.436;13.346;2022-10-13T01:45:30;101698.00;;;12.70
15845;BMP180;50807;52.436;13.346;2022-10-13T01:46:07;101694.00;;;12.70
15845;BMP180;50807;52.436;13.346;2022-10-13T01:46:41;101694.00;;;12.80
15845;BMP180;50807;52.436;13.346;2022-10-13T01:47:15;101694.00;;;12.80
15845;BMP180;50807;52.436;13.346;2022-10-13T01:47:50;101687.00;;;12.90
15845;BMP180;50807;52.436;13.346;2022-10-13T01:48:24;101690.00;;;12.80
15845;BMP180;50807;52.436;13.346;2022-10-13T01:49:00;101683.00;;;12.80
15845;BMP180;50807;52.436;13.346;2022-10-13T01:49:35;101690.00;;;12.90
15845;BMP180;50807;52.436;13.346;2022-10-13T01:50:09;101680.00;;;12.90
15845;BMP180;50807;52.436;13.346;2022-10-13T01:50:41;101685.00;;;12.90
15845;BMP180;50807;52.436;13.346;2022-10-13T01:51:18;101678.00;;;12.90
15845;BMP180;50807;52.436;13.346;2022-10-13T01:51:53;101685.00;;;12.90
15845;BMP180;50807;52.436;13.346;2022-10-13T01:52:31;101694.00;;;12.90
15845;BMP180;50807;52.436;13.346;2022-10-13T01:53:05;101685.00;;;12.90
15845;BMP180;50807;52.436;13.346;2022-10-13T01:53:38;101681.00;;;13.00
15845;BMP180;50807;52.436;13.346;2022-10-13T01:54:10;101678.00;;;13.00
15845;BMP180;50807;52.436;13.346;2022-10-13T01:54:42;101682.00;;;13.00
15845;BMP180;50807;52.436;13.346;2022-10-13T01:55:13;101677.00;;;13.00
15845;BMP180;50807;52.436;13.346;2022-10-13T01:55:51;101682.00;;;12.90
15845;BMP180;50807;52.436;13.346;2022-10-13T01:56:23;101679.00;;;13.00
15845;BMP180;50807;52.436;13.346;2022-10-13T01:56:55;101679.00;;;13.00
15845;BMP180;50807;52.436;13.346;2022-10-13T01:57:30;101676.00;;;13.00
15845;BMP180;50807;52.436;13.346;2022-10-13T01:58:02;101673.00;;;13.00
15845;BMP180;50807;52.436;13.346;2022-10-13T01:58:36;101670.00;;;13.00
15845;BMP180;50807;52.436;13.346;2022-10-13T01:59:11;101667.00;;;13.10
15845;BMP180;50807;52.436;13.346;2022-10-13T01:59:43;101672.00;;;13.10
15845;BMP180;50807;52.436;13.346;2022-10-13T02:00:19;101672.00;;;13.00
15845;BMP180;50807;52.436;13.346;2022-10-13T02:01:07;101668.00;;;12.90
15845;BMP180;50807;52.436;13.346;2022-10-13T02:01:54;101677.00;;;12.90
15845;BMP180;50807;52.436;13.346;2022-10-13T02:02:38;101675.00;;;12.90
15845;BMP180;50807;52.436;13.346;2022-10-13T02:03:20;101667.00;;;12.90
15845;BMP180;50807;52.436;13.346;2022-10-13T02:04:09;101674.00;;;12.90
15845;BMP180;50807;52.436;13.346;2022-10-13T02:04:52;101673.00;;;12.90
15845;BMP180;50807;52.436;13.346;2022-10-13T02:05:37;101676.00;;;12.90
15845;BMP180;50807;52.436;13.346;2022-10-13T02:06:20;101671.00;;;12.90
15845;BMP180;50807;52.436;13.346;2022-10-13T02:07:00;101671.00;;;12.90
15845;BMP180;50807;52.436;13.346;2022-10-13T02:07:37;101663.00;;;13.00
15845;BMP180;50807;52.436;13.346;2022-10-13T02:08:19;101670.00;;;13.00
15845;BMP180;50807;52.436;13.346;2022-10-13T02:09:02;101662.00;;;13.00
15845;BMP180;50807;52.436;13.346;2022-10-13T02:09:42;101656.00;;;13.00
15845;BMP180;50807;52.436;13.346;2022-10-13T02:10:26;101655.00;;;13.00
15845;BMP180;50807;52.436;13.346;2022-10-13T02:11:10;101654.00;;;13.00
15845;BMP180;50807;52.436;13.346;2022-10-13T02:11:55;101654.00;;;13.00
15845;BMP180;50807;52.436;13.346;2022-10-13T02:12:37;101663.00;;;13.00
15845;BMP180;50807;52.436;13.346;2022-10-13T02:13:14;101655.00;;;13.00
15845;BMP180;50807;52.436;13.346;2022-10-13T02:13:58;101657.00;;;13.00
15845;BMP180;50807;52.436;13.346;2022-10-13T02:14:33;101661.00;;;13.10
15845;BMP180;50807;52.436;13.346;2022-10-13T02:15:13;101655.00;;;13.10
15845;BMP180;50807;52.436;13.346;2022-10-13T02:15:51;101666.00;;;13.10
15845;BMP180;50807;52.436;13.346;2022-10-13T02:16:24;101659.00;;;13.10
15845;BMP180;50807;52.436;13.346;2022-10-13T02:17:01;101656.00;;;13.10
15845;BMP180;50807;52.436;13.346;2022-10-13T02:17:33;101657.00;;;13.20
15845;BMP180;50807;52.436;13.346;2022-10-13T02:18:07;101645.00;;;13.20
15845;BMP180;50807;52.436;13.346;2022-10-13T02:18:40;101653.00;;;13.20
15845;BMP180;50807;52.436;13.346;2022-10-13T02:19:15;101661.00;;;13.20
15845;BMP180;50807;52.436;13.346;2022-10-13T02:19:46;101655.00;;;13.20
15845;BMP180;50807;52.436;13.346;2022-10-13T02:20:19;101655.00;;;13.20
15845;BMP180;50807;52.436;13.346;2022-10-13T02:20:51;101656.00;;;13.20
15845;BMP180;50807;52.436;13.346;2022-10-13T02:21:23;101657.00;;;13.30
15845;BMP180;50807;52.436;13.346;2022-10-13T02:21:56;101655.00;;;13.20
15845;BMP180;50807;52.436;13.346;2022-10-13T02:22:32;101652.00;;;13.20
15845;BMP180;50807;52.436;13.346;2022-10-13T02:23:10;101650.00;;;13.20
15845;BMP180;50807;52.436;13.346;2022-10-13T02:23:43;101652.00;;;13.20
15845;BMP180;50807;52.436;13.346;2022-10-13T02:24:15;101655.00;;;13.20
15845;BMP180;50807;52.436;13.346;2022-10-13T02:24:46;101654.00;;;13.20
15845;BMP180;50807;52.436;13.346;2022-10-13T02:25:17;101650.00;;;13.20
15845;BMP180;50807;52.436;13.346;2022-10-13T02:25:49;101652.00;;;13.20
15845;BMP180;50807;52.436;13.346;2022-10-13T02:26:21;101657.00;;;13.20
15845;BMP180;50807;52.436;13.346;2022-10-13T02:26:52;101652.00;;;13.20
15845;BMP180;50807;52.436;13.346;2022-10-13T02:27:25;101652.00;;;13.20
15845;BMP180;50807;52.436;13.346;2022-10-13T02:27:58;101660.00;;;13.20
15845;BMP180;50807;52.436;13.346;2022-10-13T02:28:29;101657.00;;;13.20
15845;BMP180;50807;52.436;13.346;2022-10-13T02:29:08;101648.00;;;12.90
15845;BMP180;50807;52.436;13.346;2022-10-13T02:29:51;101644.00;;;13.00
15845;BMP180;50807;52.436;13.346;2022-10-13T02:30:26;101641.00;;;13.10
15845;BMP180;50807;52.436;13.346;2022-10-13T02:31:00;101651.00;;;13.10
15845;BMP180;50807;52.436;13.346;2022-10-13T02:31:30;101648.00;;;13.10
15845;BMP180;50807;52.436;13.346;2022-10-13T02:32:01;101649.00;;;13.10
15845;BMP180;50807;52.436;13.346;2022-10-13T02:32:33;101651.00;;;13.10
15845;BMP180;50807;52.436;13.346;2022-10-13T02:33:04;101653.00;;;13.10
15845;BMP180;50807;52.436;13.346;2022-10-13T02:33:35;101653.00;;;13.10
15845;BMP180;50807;52.436;13.346;2022-10-13T02:34:06;101647.00;;;13.10
15845;BMP180;50807;52.436;13.346;2022-10-13T02:34:38;101638.00;;;13.10
15845;BMP180;50807;52.436;13.346;2022-10-13T02:35:09;101652.00;;;13.10
15845;BMP180;50807;52.436;13.346;2022-10-13T02:35:40;101646.00;;;13.10
15845;BMP180;50807;52.436;13.346;2022-10-13T02:36:12;101639.00;;;13.10
15845;BMP180;50807;52.436;13.346;2022-10-13T02:36:43;101653.00;;;13.10
15845;BMP180;50807;52.436;13.346;2022-10-13T02:37:14;101642.00;;;13.10
15845;BMP180;50807;52.436;13.346;2022-10-13T02:37:45;101638.00;;;13.10
15845;BMP180;50807;52.436;13.346;2022-10-13T02:38:17;101642.00;;;13.10
15845;BMP180;50807;52.436;13.346;2022-10-13T02:38:48;101636.00;;;13.10
15845;BMP180;50807;52.436;13.346;2022-10-13T02:39:18;101634.00;;;13.10
15845;BMP180;50807;52.436;13.346;2022-10-13T02:39:50;101644.00;;;13.10
15845;BMP180;50807;52.436;13.346;2022-10-13T02:40:21;101644.00;;;13.10
15845;BMP180;50807;52.436;13.346;2022-10-13T02:40:52;101635.00;;;13.00
15845;BMP180;50807;52.436;13.346;2022-10-13T02:41:25;101635.00;;;13.00
15845;BMP180;50807;52.436;13.346;2022-10-13T02:41:56;101642.00;;;13.00
15845;BMP180;50807;52.436;13.346;2022-10-13T02:42:26;101642.00;;;13.00
15845;BMP180;50807;52.436;13.346;2022-10-13T02:42:58;101637.00;;;13.00
15845;BMP180;50807;52.436;13.346;2022-10-13T02:43:29;101632.00;;;13.00
15845;BMP180;50807;52.436;13.346;2022-10-13T02:44:00;101634.00;;;13.00
15845;BMP180;50807;52.436;13.346;2022-10-13T02:44:31;101638.00;;;13.00
15845;BMP180;50807;52.436;13.346;2022-10-13T02:45:03;101630.00;;;13.00
15845;BMP180;50807;52.436;13.346;2022-10-13T02:45:35;101632.00;;;13.00
15845;BMP180;50807;52.436;13.346;2022-10-13T02:46:08;101638.00;;;12.90
15845;BMP180;50807;52.436;13.346;2022-10-13T02:46:39;101634.00;;;12.90
15845;BMP180;50807;52.436;13.346;2022-10-13T02:47:09;101634.00;;;12.90
15845;BMP180;50807;52.436;13.346;2022-10-13T02:47:40;101648.00;;;12.90
15845;BMP180;50807;52.436;13.346;2022-10-13T02:48:12;101636.00;;;12.90
15845;BMP180;50807;52.436;13.346;2022-10-13T02:48:43;101640.00;;;12.90
15845;BMP180;50807;52.436;13.346;2022-10-13T02:49:14;101640.00;;;12.90
15845;BMP180;50807;52.436;13.346;2022-10-13T02:49:45;101641.00;;;12.90
15845;BMP180;50807;52.436;13.346;2022-10-13T02:50:16;101642.00;;;12.90
15845;BMP180;50807;52.436;13.346;2022-10-13T02:50:47;101637.00;;;12.90
15845;BMP180;50807;52.436;13.346;2022-10-13T02:51:19;101635.00;;;12.90
15845;BMP180;50807;52.436;13.346;2022-10-13T02:51:50;101627.00;;;12.90
15845;BMP180;50807;52.436;13.346;2022-10-13T02:52:21;101630.00;;;12.80
15845;BMP180;50807;52.436;13.346;2022-10-13T02:52:53;101634.00;;;12.90
15845;BMP180;50807;52.436;13.346;2022-10-13T02:53:24;101637.00;;;12.80
15845;BMP180;50807;52.436;13.346;2022-10-13T02:53:55;101631.00;;;12.80
15845;BMP180;50807;52.436;13.346;2022-10-13T02:54:27;101637.00;;;12.80
15845;BMP180;50807;52.436;13.346;2022-10-13T02:54:57;101634.00;;;12.80
15845;BMP180;50807;52.436;13.346;2022-10-13T02:55:28;101637.00;;;12.80
15845;BMP180;50807;52.436;13.346;2022-10-13T02:56:01;101636.00;;;12.80
15845;BMP180;50807;52.436;13.346;2022-10-13T02:56:32;101622.00;;;12.80
15845;BMP180;50807;52.436;13.346;2022-10-13T02:57:02;101630.00;;;12.80
15845;BMP180;50807;52.436;13.346;2022-10-13T02:57:34;101636.00;;;12.80
15845;BMP180;50807;52.436;13.346;2022-10-13T02:58:05;101628.00;;;12.80
15845;BMP180;50807;52.436;13.346;2022-10-13T02:58:36;101621.00;;;12.80
15845;BMP180;50807;52.436;13.346;2022-10-13T02:59:08;101626.00;;;12.80
15845;BMP180;50807;52.436;13.346;2022-10-13T02:59:38;101625.00;;;12.80
15845;BMP180;50807;52.436;13.346;2022-10-13T03:00:11;101617.00;;;12.70
15845;BMP180;50807;52.436;13.346;2022-10-13T03:00:42;101600.00;;;12.70
15845;BMP180;50807;52.436;13.346;2022-10-13T03:01:15;101620.00;;;12.70
15845;BMP180;50807;52.436;13.346;2022-10-13T03:01:46;101621.00;;;12.70
15845;BMP180;50807;52.436;13.346;2022-10-13T03:02:17;101623.00;;;12.70
15845;BMP180;50807;52.436;13.346;2022-10-13T03:02:49;101627.00;;;12.70
15845;BMP180;50807;52.436;13.346;2022-10-13T03:03:20;101623.00;;;12.70
15845;BMP180;50807;52.436;13.346;2022-10-13T03:03:50;101630.00;;;12.70
15845;BMP180;50807;52.436;13.346;2022-10-13T03:04:22;101631.00;;;12.60
15845;BMP180;50807;52.436;13.346;2022-10-13T03:04:54;101625.00;;;12.60
15845;BMP180;50807;52.436;13.346;2022-10-13T03:05:25;101623.00;;;12.60
15845;BMP180;50807;52.436;13.346;2022-10-13T03:05:57;101634.00;;;12.60
15845;BMP180;50807;52.436;13.346;2022-10-13T03:06:28;101628.00;;;12.60
15845;BMP180;50807;52.436;13.346;2022-10-13T03:06:59;101623.00;;;12.60
15845;BMP180;50807;52.436;13.346;2022-10-13T03:07:30;101631.00;;;12.60
15845;BMP180;50807;52.436;13.346;2022-10-13T03:08:02;101626.00;;;12.60
15845;BMP180;50807;52.436;13.346;2022-10-13T03:08:34;101629.00;;;12.50
15845;BMP180;50807;52.436;13.346;2022-10-13T03:09:05;101629.00;;;12.50
15845;BMP180;50807;52.436;13.346;2022-10-13T03:09:37;101627.00;;;12.50
15845;BMP180;50807;52.436;13.346;2022-10-13T03:10:08;101629.00;;;12.60
15845;BMP180;50807;52.436;13.346;2022-10-13T03:10:39;101629.00;;;12.50
15845;BMP180;50807;52.436;13.346;2022-10-13T03:11:10;101632.00;;;12.50
15845;BMP180;50807;52.436;13.346;2022-10-13T03:11:41;101617.00;;;12.50
15845;BMP180;50807;52.436;13.346;2022-10-13T03:12:12;101630.00;;;12.50
15845;BMP180;50807;52.436;13.346;2022-10-13T03:12:43;101621.00;;;12.50
15845;BMP180;50807;52.436;13.346;2022-10-13T03:13:15;101618.00;;;12.50
15845;BMP180;50807;52.436;13.346;2022-10-13T03:13:46;101614.00;;;12.50
15845;BMP180;50807;52.436;13.346;2022-10-13T03:14:17;101617.00;;;12.50
15845;BMP180;50807;52.436;13.346;2022-10-13T03:14:49;101609.00;;;12.50
15845;BMP180;50807;52.436;13.346;2022-10-13T03:15:19;101617.00;;;12.50
15845;BMP180;50807;52.436;13.346;2022-10-13T03:15:50;101618.00;;;12.50
15845;BMP180;50807;52.436;13.346;2022-10-13T03:16:23;101614.00;;;12.40